sensor_id;sensor_type;location;lat;lon;timestamp;temperature;humidity
24085;DHT22;12268;52.110;5.548;2023-05-07T00:02:18;19.10;99.90
24085;DHT22;12268;52.110;5.548;2023-05-07T00:04:43;19.00;99.90
24085;DHT22;12268;52.110;5.548;2023-05-07T00:07:09;19.00;99.90
24085;DHT22;12268;52.110;5.548;2023-05-07T00:09:35;19.10;99.90
24085;DHT22;12268;52.110;5.548;2023-05-07T00:12:01;19.10;99.90
24085;DHT22;12268;52.110;5.548;2023-05-07T00:14:26;19.20;99.90
24085;DHT22;12268;52.110;5.548;2023-05-07T00:16:52;19.20;99.90
24085;DHT22;12268;52.110;5.548;2023-05-07T00:19:17;19.20;99.90
24085;DHT22;12268;52.110;5.548;2023-05-07T00:21:43;19.20;99.90
24085;DHT22;12268;52.110;5.548;2023-05-07T00:24:08;19.20;99.90
24085;DHT22;12268;52.110;5.548;2023-05-07T00:26:34;19.20;99.90
24085;DHT22;12268;52.110;5.548;2023-05-07T00:28:59;19.20;99.90
24085;DHT22;12268;52.110;5.548;2023-05-07T00:31:25;19.20;99.90
24085;DHT22;12268;52.110;5.548;2023-05-07T00:33:50;19.20;99.90
24085;DHT22;12268;52.110;5.548;2023-05-07T00:36:16;19.20;99.90
24085;DHT22;12268;52.110;5.548;2023-05-07T00:38:41;19.20;99.90
24085;DHT22;12268;52.110;5.548;2023-05-07T00:41:07;19.20;99.90
24085;DHT22;12268;52.110;5.548;2023-05-07T00:43:32;19.20;99.90
24085;DHT22;12268;52.110;5.548;2023-05-07T00:45:58;19.10;99.90
24085;DHT22;12268;52.110;5.548;2023-05-07T00:48:24;19.10;99.90
24085;DHT22;12268;52.110;5.548;2023-05-07T00:50:50;19.00;99.90
24085;DHT22;12268;52.110;5.548;2023-05-07T00:53:16;18.90;99.90
24085;DHT22;12268;52.110;5.548;2023-05-07T00:55:42;18.90;99.90
24085;DHT22;12268;52.110;5.548;2023-05-07T00:58:07;18.90;99.90
24085;DHT22;12268;52.110;5.548;2023-05-07T01:00:33;18.80;99.90
24085;DHT22;12268;52.110;5.548;2023-05-07T01:02:59;18.80;99.90
24085;DHT22;12268;52.110;5.548;2023-05-07T01:05:26;18.80;99.90
24085;DHT22;12268;52.110;5.548;2023-05-07T01:07:54;18.80;99.90
24085;DHT22;12268;52.110;5.548;2023-05-07T01:10:20;18.90;99.90
24085;DHT22;12268;52.110;5.548;2023-05-07T01:12:46;18.80;99.90
24085;DHT22;12268;52.110;5.548;2023-05-07T01:15:12;18.60;99.90
24085;DHT22;12268;52.110;5.548;2023-05-07T01:17:40;18.70;99.90
24085;DHT22;12268;52.110;5.548;2023-05-07T01:20:06;18.80;99.90
24085;DHT22;12268;52.110;5.548;2023-05-07T01:22:33;18.80;99.90
24085;DHT22;12268;52.110;5.548;2023-05-07T01:25:00;18.80;99.90
24085;DHT22;12268;52.110;5.548;2023-05-07T01:27:27;18.80;99.90
24085;DHT22;12268;52.110;5.548;2023-05-07T01:29:52;18.80;99.90
24085;DHT22;12268;52.110;5.548;2023-05-07T01:32:21;18.80;99.90
24085;DHT22;12268;52.110;5.548;2023-05-07T01:34:48;18.90;99.90
24085;DHT22;12268;52.110;5.548;2023-05-07T01:37:15;18.90;99.90
24085;DHT22;12268;52.110;5.548;2023-05-07T01:39:41;19.00;99.90
24085;DHT22;12268;52.110;5.548;2023-05-07T01:42:07;19.00;99.90
24085;DHT22;12268;52.110;5.548;2023-05-07T01:44:33;19.10;99.90
24085;DHT22;12268;52.110;5.548;2023-05-07T01:46:59;19.10;99.90
24085;DHT22;12268;52.110;5.548;2023-05-07T01:49:25;19.10;99.90
24085;DHT22;12268;52.110;5.548;2023-05-07T01:51:51;19.10;99.90
24085;DHT22;12268;52.110;5.548;2023-05-07T01:54:16;19.10;99.90
24085;DHT22;12268;52.110;5.548;2023-05-07T01:56:42;19.10;99.90
24085;DHT22;12268;52.110;5.548;2023-05-07T01:59:07;19.00;99.90
24085;DHT22;12268;52.110;5.548;2023-05-07T02:01:33;18.90;99.90
24085;DHT22;12268;52.110;5.548;2023-05-07T02:03:59;18.90;99.90
24085;DHT22;12268;52.110;5.548;2023-05-07T02:06:24;19.00;99.90
24085;DHT22;12268;52.110;5.548;2023-05-07T02:08:50;19.00;99.90
24085;DHT22;12268;52.110;5.548;2023-05-07T02:11:15;18.80;99.90
24085;DHT22;12268;52.110;5.548;2023-05-07T02:13:41;18.80;99.90
24085;DHT22;12268;52.110;5.548;2023-05-07T02:16:07;18.80;99.90
24085;DHT22;12268;52.110;5.548;2023-05-07T02:18:32;18.80;99.90
24085;DHT22;12268;52.110;5.548;2023-05-07T02:20:58;18.80;99.90
24085;DHT22;12268;52.110;5.548;2023-05-07T02:23:24;18.90;99.90
24085;DHT22;12268;52.110;5.548;2023-05-07T02:25:49;18.90;99.90
24085;DHT22;12268;52.110;5.548;2023-05-07T02:28:15;18.80;99.90
24085;DHT22;12268;52.110;5.548;2023-05-07T02:30:41;18.50;99.90
24085;DHT22;12268;52.110;5.548;2023-05-07T02:33:06;18.40;99.90
24085;DHT22;12268;52.110;5.548;2023-05-07T02:35:33;18.30;99.90
24085;DHT22;12268;52.110;5.548;2023-05-07T02:37:59;18.40;99.90
24085;DHT22;12268;52.110;5.548;2023-05-07T02:40:24;18.60;99.90
24085;DHT22;12268;52.110;5.548;2023-05-07T02:42:50;18.70;99.90
24085;DHT22;12268;52.110;5.548;2023-05-07T02:45:15;18.60;99.90
24085;DHT22;12268;52.110;5.548;2023-05-07T02:47:41;18.50;99.90
24085;DHT22;12268;52.110;5.548;2023-05-07T02:50:07;18.50;99.90
24085;DHT22;12268;52.110;5.548;2023-05-07T02:52:33;18.80;99.90
24085;DHT22;12268;52.110;5.548;2023-05-07T02:54:58;18.80;99.90
24085;DHT22;12268;52.110;5.548;2023-05-07T02:57:24;18.90;99.90
24085;DHT22;12268;52.110;5.548;2023-05-07T02:59:49;18.90;99.90
24085;DHT22;12268;52.110;5.548;2023-05-07T03:02:16;18.90;99.90
24085;DHT22;12268;52.110;5.548;2023-05-07T03:04:41;18.80;99.90
24085;DHT22;12268;52.110;5.548;2023-05-07T03:07:07;18.60;99.90
24085;DHT22;12268;52.110;5.548;2023-05-07T03:09:33;18.60;99.90
24085;DHT22;12268;52.110;5.548;2023-05-07T03:11:58;18.50;99.90
24085;DHT22;12268;52.110;5.548;2023-05-07T03:14:24;18.70;99.90
24085;DHT22;12268;52.110;5.548;2023-05-07T03:16:50;18.80;99.90
24085;DHT22;12268;52.110;5.548;2023-05-07T03:19:16;18.80;99.90
24085;DHT22;12268;52.110;5.548;2023-05-07T03:21:41;18.80;99.90
24085;DHT22;12268;52.110;5.548;2023-05-07T03:24:07;18.70;99.90
24085;DHT22;12268;52.110;5.548;2023-05-07T03:26:32;18.90;99.90
24085;DHT22;12268;52.110;5.548;2023-05-07T03:28:58;19.10;99.90
24085;DHT22;12268;52.110;5.548;2023-05-07T03:31:23;19.20;99.90
24085;DHT22;12268;52.110;5.548;2023-05-07T03:33:55;19.10;99.90
24085;DHT22;12268;52.110;5.548;2023-05-07T03:36:22;19.10;99.90
24085;DHT22;12268;52.110;5.548;2023-05-07T03:38:48;18.90;99.90
24085;DHT22;12268;52.110;5.548;2023-05-07T03:41:14;18.80;99.90
24085;DHT22;12268;52.110;5.548;2023-05-07T03:43:40;18.90;99.90
24085;DHT22;12268;52.110;5.548;2023-05-07T03:46:05;19.00;99.90
24085;DHT22;12268;52.110;5.548;2023-05-07T03:48:31;18.90;99.90
24085;DHT22;12268;52.110;5.548;2023-05-07T03:50:59;18.80;99.90
24085;DHT22;12268;52.110;5.548;2023-05-07T03:53:25;18.80;99.90
24085;DHT22;12268;52.110;5.548;2023-05-07T03:55:51;18.70;99.90
24085;DHT22;12268;52.110;5.548;2023-05-07T03:58:16;18.70;99.90
24085;DHT22;12268;52.110;5.548;2023-05-07T04:00:42;18.70;99.90
24085;DHT22;12268;52.110;5.548;2023-05-07T04:03:08;18.80;99.90
24085;DHT22;12268;52.110;5.548;2023-05-07T04:05:33;18.90;99.90
24085;DHT22;12268;52.110;5.548;2023-05-07T04:08:00;18.90;99.90
24085;DHT22;12268;52.110;5.548;2023-05-07T04:10:26;18.90;99.90
24085;DHT22;12268;52.110;5.548;2023-05-07T04:12:52;18.70;99.90
24085;DHT22;12268;52.110;5.548;2023-05-07T04:15:17;18.50;99.90
24085;DHT22;12268;52.110;5.548;2023-05-07T04:17:43;18.60;99.90
24085;DHT22;12268;52.110;5.548;2023-05-07T04:20:10;18.60;99.90
24085;DHT22;12268;52.110;5.548;2023-05-07T04:22:36;18.50;99.90
24085;DHT22;12268;52.110;5.548;2023-05-07T04:25:02;18.50;99.90
24085;DHT22;12268;52.110;5.548;2023-05-07T04:27:27;18.70;99.90
24085;DHT22;12268;52.110;5.548;2023-05-07T04:29:53;18.80;99.90
24085;DHT22;12268;52.110;5.548;2023-05-07T04:32:21;18.80;99.90
24085;DHT22;12268;52.110;5.548;2023-05-07T04:34:46;18.60;99.90
24085;DHT22;12268;52.110;5.548;2023-05-07T04:37:12;18.40;99.90
24085;DHT22;12268;52.110;5.548;2023-05-07T04:39:37;18.20;99.90
24085;DHT22;12268;52.110;5.548;2023-05-07T04:42:03;18.30;99.90
24085;DHT22;12268;52.110;5.548;2023-05-07T04:44:28;18.10;99.90
24085;DHT22;12268;52.110;5.548;2023-05-07T04:46:56;17.70;99.90
24085;DHT22;12268;52.110;5.548;2023-05-07T04:49:22;17.50;99.90
24085;DHT22;12268;52.110;5.548;2023-05-07T04:51:47;17.70;99.90
24085;DHT22;12268;52.110;5.548;2023-05-07T04:54:13;17.70;99.90
24085;DHT22;12268;52.110;5.548;2023-05-07T04:56:38;17.90;99.90
24085;DHT22;12268;52.110;5.548;2023-05-07T04:59:04;17.70;99.90
24085;DHT22;12268;52.110;5.548;2023-05-07T05:01:31;17.70;99.90
24085;DHT22;12268;52.110;5.548;2023-05-07T05:03:56;17.60;99.90
24085;DHT22;12268;52.110;5.548;2023-05-07T05:06:22;17.50;99.90
24085;DHT22;12268;52.110;5.548;2023-05-07T05:08:47;17.50;99.90
24085;DHT22;12268;52.110;5.548;2023-05-07T05:11:13;17.50;99.90
24085;DHT22;12268;52.110;5.548;2023-05-07T05:13:38;17.70;99.90
24085;DHT22;12268;52.110;5.548;2023-05-07T05:16:04;17.60;99.90
24085;DHT22;12268;52.110;5.548;2023-05-07T05:18:30;17.40;99.90
24085;DHT22;12268;52.110;5.548;2023-05-07T05:20:55;17.40;99.90
24085;DHT22;12268;52.110;5.548;2023-05-07T05:23:21;17.50;99.90
24085;DHT22;12268;52.110;5.548;2023-05-07T05:25:46;17.60;99.90
24085;DHT22;12268;52.110;5.548;2023-05-07T05:28:12;17.70;99.90
24085;DHT22;12268;52.110;5.548;2023-05-07T05:30:38;17.50;99.90
24085;DHT22;12268;52.110;5.548;2023-05-07T05:33:04;17.70;99.90
24085;DHT22;12268;52.110;5.548;2023-05-07T05:35:29;17.40;99.90
24085;DHT22;12268;52.110;5.548;2023-05-07T05:37:55;17.20;99.90
24085;DHT22;12268;52.110;5.548;2023-05-07T05:40:20;17.20;99.90
24085;DHT22;12268;52.110;5.548;2023-05-07T05:42:46;17.50;99.90
24085;DHT22;12268;52.110;5.548;2023-05-07T05:45:11;17.70;99.90
24085;DHT22;12268;52.110;5.548;2023-05-07T05:47:37;17.80;99.90
24085;DHT22;12268;52.110;5.548;2023-05-07T05:50:03;17.90;99.90
24085;DHT22;12268;52.110;5.548;2023-05-07T05:52:30;17.80;99.90
24085;DHT22;12268;52.110;5.548;2023-05-07T05:54:55;17.90;99.90
24085;DHT22;12268;52.110;5.548;2023-05-07T05:57:21;18.10;99.90
24085;DHT22;12268;52.110;5.548;2023-05-07T05:59:47;18.20;99.90
24085;DHT22;12268;52.110;5.548;2023-05-07T06:02:12;18.50;99.90
24085;DHT22;12268;52.110;5.548;2023-05-07T06:04:38;18.30;99.90
24085;DHT22;12268;52.110;5.548;2023-05-07T06:07:03;18.60;99.90
24085;DHT22;12268;52.110;5.548;2023-05-07T06:09:29;18.60;99.90
24085;DHT22;12268;52.110;5.548;2023-05-07T06:11:54;18.80;99.90
24085;DHT22;12268;52.110;5.548;2023-05-07T06:14:20;18.90;99.90
24085;DHT22;12268;52.110;5.548;2023-05-07T06:16:45;18.80;99.90
24085;DHT22;12268;52.110;5.548;2023-05-07T06:19:11;18.90;99.90
24085;DHT22;12268;52.110;5.548;2023-05-07T06:21:36;18.80;99.90
24085;DHT22;12268;52.110;5.548;2023-05-07T06:24:02;18.90;99.90
24085;DHT22;12268;52.110;5.548;2023-05-07T06:26:27;18.90;99.90
24085;DHT22;12268;52.110;5.548;2023-05-07T06:28:53;19.20;99.90
24085;DHT22;12268;52.110;5.548;2023-05-07T06:31:19;19.30;99.90
24085;DHT22;12268;52.110;5.548;2023-05-07T06:33:48;19.30;99.90
24085;DHT22;12268;52.110;5.548;2023-05-07T06:36:14;19.60;99.90
24085;DHT22;12268;52.110;5.548;2023-05-07T06:38:40;19.70;99.90
24085;DHT22;12268;52.110;5.548;2023-05-07T06:41:06;19.60;99.90
24085;DHT22;12268;52.110;5.548;2023-05-07T06:43:32;19.70;99.90
24085;DHT22;12268;52.110;5.548;2023-05-07T06:45:58;19.80;99.90
24085;DHT22;12268;52.110;5.548;2023-05-07T06:48:23;19.60;99.90
24085;DHT22;12268;52.110;5.548;2023-05-07T06:50:49;19.10;99.90
24085;DHT22;12268;52.110;5.548;2023-05-07T06:53:15;19.20;99.90
24085;DHT22;12268;52.110;5.548;2023-05-07T06:55:40;19.10;99.90
24085;DHT22;12268;52.110;5.548;2023-05-07T06:58:07;19.20;99.90
24085;DHT22;12268;52.110;5.548;2023-05-07T07:00:32;19.70;99.90
24085;DHT22;12268;52.110;5.548;2023-05-07T07:02:59;19.90;99.90
24085;DHT22;12268;52.110;5.548;2023-05-07T07:05:25;20.20;99.90
24085;DHT22;12268;52.110;5.548;2023-05-07T07:07:51;20.10;99.90
24085;DHT22;12268;52.110;5.548;2023-05-07T07:10:20;20.00;99.90
24085;DHT22;12268;52.110;5.548;2023-05-07T07:12:46;20.40;99.90
24085;DHT22;12268;52.110;5.548;2023-05-07T07:15:12;20.90;99.90
24085;DHT22;12268;52.110;5.548;2023-05-07T07:17:38;21.30;99.90
24085;DHT22;12268;52.110;5.548;2023-05-07T07:20:04;21.60;99.90
24085;DHT22;12268;52.110;5.548;2023-05-07T07:22:30;21.60;99.90
24085;DHT22;12268;52.110;5.548;2023-05-07T07:24:56;21.70;99.90
24085;DHT22;12268;52.110;5.548;2023-05-07T07:27:21;21.70;99.90
24085;DHT22;12268;52.110;5.548;2023-05-07T07:29:47;21.10;99.90
24085;DHT22;12268;52.110;5.548;2023-05-07T07:32:13;20.60;99.90
24085;DHT22;12268;52.110;5.548;2023-05-07T07:34:38;20.60;99.90
24085;DHT22;12268;52.110;5.548;2023-05-07T07:37:04;20.20;99.90
24085;DHT22;12268;52.110;5.548;2023-05-07T07:39:32;20.20;99.90
24085;DHT22;12268;52.110;5.548;2023-05-07T07:41:58;20.20;99.90
24085;DHT22;12268;52.110;5.548;2023-05-07T07:44:23;20.50;99.90
24085;DHT22;12268;52.110;5.548;2023-05-07T07:46:49;20.60;99.90
24085;DHT22;12268;52.110;5.548;2023-05-07T07:49:15;20.50;99.90
24085;DHT22;12268;52.110;5.548;2023-05-07T07:51:41;20.40;99.90
24085;DHT22;12268;52.110;5.548;2023-05-07T07:54:06;20.00;99.90
24085;DHT22;12268;52.110;5.548;2023-05-07T07:56:32;19.50;99.90
24085;DHT22;12268;52.110;5.548;2023-05-07T07:58:59;19.50;99.90
24085;DHT22;12268;52.110;5.548;2023-05-07T08:01:24;19.80;99.90
24085;DHT22;12268;52.110;5.548;2023-05-07T08:03:51;19.60;99.90
24085;DHT22;12268;52.110;5.548;2023-05-07T08:06:17;19.60;99.90
24085;DHT22;12268;52.110;5.548;2023-05-07T08:08:42;20.10;99.90
24085;DHT22;12268;52.110;5.548;2023-05-07T08:11:08;20.60;99.90
24085;DHT22;12268;52.110;5.548;2023-05-07T08:13:34;21.00;99.90
24085;DHT22;12268;52.110;5.548;2023-05-07T08:16:00;21.20;99.90
24085;DHT22;12268;52.110;5.548;2023-05-07T08:18:25;21.10;99.90
24085;DHT22;12268;52.110;5.548;2023-05-07T08:20:53;21.30;99.90
24085;DHT22;12268;52.110;5.548;2023-05-07T08:23:19;21.20;99.90
24085;DHT22;12268;52.110;5.548;2023-05-07T08:25:44;21.30;99.90
24085;DHT22;12268;52.110;5.548;2023-05-07T08:28:10;21.30;99.90
24085;DHT22;12268;52.110;5.548;2023-05-07T08:30:35;20.80;99.90
24085;DHT22;12268;52.110;5.548;2023-05-07T08:33:01;21.10;99.90
24085;DHT22;12268;52.110;5.548;2023-05-07T08:35:26;20.70;99.90
24085;DHT22;12268;52.110;5.548;2023-05-07T08:37:53;20.60;99.90
24085;DHT22;12268;52.110;5.548;2023-05-07T08:40:18;20.50;99.90
24085;DHT22;12268;52.110;5.548;2023-05-07T08:42:44;20.60;99.90
24085;DHT22;12268;52.110;5.548;2023-05-07T08:58:47;17.50;99.90
24085;DHT22;12268;52.110;5.548;2023-05-07T09:01:14;17.50;99.90
24085;DHT22;12268;52.110;5.548;2023-05-07T09:03:43;18.10;99.90
24085;DHT22;12268;52.110;5.548;2023-05-07T09:06:09;18.80;99.90
24085;DHT22;12268;52.110;5.548;2023-05-07T09:08:35;19.40;99.90
24085;DHT22;12268;52.110;5.548;2023-05-07T09:11:01;19.90;99.90
24085;DHT22;12268;52.110;5.548;2023-05-07T09:13:28;20.20;99.90
24085;DHT22;12268;52.110;5.548;2023-05-07T09:15:54;20.40;99.90
24085;DHT22;12268;52.110;5.548;2023-05-07T11:27:48;27.20;99.90
24085;DHT22;12268;52.110;5.548;2023-05-07T11:30:17;27.10;99.90
24085;DHT22;12268;52.110;5.548;2023-05-07T11:32:47;27.10;99.90
24085;DHT22;12268;52.110;5.548;2023-05-07T11:35:15;26.90;99.90
24085;DHT22;12268;52.110;5.548;2023-05-07T11:37:42;26.80;99.90
24085;DHT22;12268;52.110;5.548;2023-05-07T11:42:44;26.20;99.90
24085;DHT22;12268;52.110;5.548;2023-05-07T11:45:10;26.30;99.90
24085;DHT22;12268;52.110;5.548;2023-05-07T11:47:36;26.20;99.90
24085;DHT22;12268;52.110;5.548;2023-05-07T11:50:06;25.70;99.90
24085;DHT22;12268;52.110;5.548;2023-05-07T11:52:33;25.30;99.90
24085;DHT22;12268;52.110;5.548;2023-05-07T11:55:00;25.50;99.90
24085;DHT22;12268;52.110;5.548;2023-05-07T11:57:27;25.70;99.90
24085;DHT22;12268;52.110;5.548;2023-05-07T11:59:53;25.60;99.90
24085;DHT22;12268;52.110;5.548;2023-05-07T12:02:19;25.80;99.90
24085;DHT22;12268;52.110;5.548;2023-05-07T12:04:44;25.70;99.90
24085;DHT22;12268;52.110;5.548;2023-05-07T12:07:17;25.50;99.90
24085;DHT22;12268;52.110;5.548;2023-05-07T12:09:44;25.60;99.90
24085;DHT22;12268;52.110;5.548;2023-05-07T12:12:10;26.50;99.90
24085;DHT22;12268;52.110;5.548;2023-05-07T12:14:40;27.20;99.90
24085;DHT22;12268;52.110;5.548;2023-05-07T12:17:13;28.00;99.90
24085;DHT22;12268;52.110;5.548;2023-05-07T12:19:41;28.00;99.90
24085;DHT22;12268;52.110;5.548;2023-05-07T12:22:10;27.30;99.90
24085;DHT22;12268;52.110;5.548;2023-05-07T12:24:46;27.80;99.90
24085;DHT22;12268;52.110;5.548;2023-05-07T12:27:13;28.70;99.90
24085;DHT22;12268;52.110;5.548;2023-05-07T12:29:38;28.70;99.90
24085;DHT22;12268;52.110;5.548;2023-05-07T12:32:06;29.20;99.90
24085;DHT22;12268;52.110;5.548;2023-05-07T12:34:32;29.70;99.90
24085;DHT22;12268;52.110;5.548;2023-05-07T12:37:01;30.30;99.90
24085;DHT22;12268;52.110;5.548;2023-05-07T12:39:28;30.20;99.90
24085;DHT22;12268;52.110;5.548;2023-05-07T12:44:22;30.10;99.90
24085;DHT22;12268;52.110;5.548;2023-05-07T12:46:49;29.70;99.90
24085;DHT22;12268;52.110;5.548;2023-05-07T12:49:14;29.20;99.90
24085;DHT22;12268;52.110;5.548;2023-05-07T12:51:40;29.10;99.90
24085;DHT22;12268;52.110;5.548;2023-05-07T12:54:06;29.40;99.90
24085;DHT22;12268;52.110;5.548;2023-05-07T12:56:31;29.30;99.90
24085;DHT22;12268;52.110;5.548;2023-05-07T12:58:57;29.40;99.90
24085;DHT22;12268;52.110;5.548;2023-05-07T13:01:29;29.70;99.90
24085;DHT22;12268;52.110;5.548;2023-05-07T13:03:55;30.30;99.90
24085;DHT22;12268;52.110;5.548;2023-05-07T13:06:21;30.70;99.90
24085;DHT22;12268;52.110;5.548;2023-05-07T13:08:46;31.00;99.90
24085;DHT22;12268;52.110;5.548;2023-05-07T13:11:12;30.70;99.90
24085;DHT22;12268;52.110;5.548;2023-05-07T13:13:41;29.50;99.90
24085;DHT22;12268;52.110;5.548;2023-05-07T13:16:08;28.70;99.90
24085;DHT22;12268;52.110;5.548;2023-05-07T13:18:34;28.40;99.90
24085;DHT22;12268;52.110;5.548;2023-05-07T13:21:00;27.60;99.90
24085;DHT22;12268;52.110;5.548;2023-05-07T13:23:27;26.60;99.90
24085;DHT22;12268;52.110;5.548;2023-05-07T13:25:53;26.50;99.90
24085;DHT22;12268;52.110;5.548;2023-05-07T13:28:22;26.60;99.90
24085;DHT22;12268;52.110;5.548;2023-05-07T13:30:48;26.90;99.90
24085;DHT22;12268;52.110;5.548;2023-05-07T13:33:14;27.10;99.90
24085;DHT22;12268;52.110;5.548;2023-05-07T13:35:41;26.70;99.90
24085;DHT22;12268;52.110;5.548;2023-05-07T13:38:07;26.50;99.90
24085;DHT22;12268;52.110;5.548;2023-05-07T13:40:33;26.20;99.90
24085;DHT22;12268;52.110;5.548;2023-05-07T13:42:59;26.00;99.90
24085;DHT22;12268;52.110;5.548;2023-05-07T13:45:27;26.00;99.90
24085;DHT22;12268;52.110;5.548;2023-05-07T13:47:54;25.90;99.90
24085;DHT22;12268;52.110;5.548;2023-05-07T13:50:20;25.10;99.90
24085;DHT22;12268;52.110;5.548;2023-05-07T13:52:45;24.90;99.90
24085;DHT22;12268;52.110;5.548;2023-05-07T13:55:24;24.50;99.90
24085;DHT22;12268;52.110;5.548;2023-05-07T13:57:57;24.40;99.90
24085;DHT22;12268;52.110;5.548;2023-05-07T14:00:24;23.50;99.90
24085;DHT22;12268;52.110;5.548;2023-05-07T14:02:50;23.00;99.90
24085;DHT22;12268;52.110;5.548;2023-05-07T14:05:16;22.80;99.90
24085;DHT22;12268;52.110;5.548;2023-05-07T14:07:41;22.70;99.90
24085;DHT22;12268;52.110;5.548;2023-05-07T14:10:07;22.80;99.90
24085;DHT22;12268;52.110;5.548;2023-05-07T14:12:33;22.90;99.90
24085;DHT22;12268;52.110;5.548;2023-05-07T14:14:59;22.90;99.90
24085;DHT22;12268;52.110;5.548;2023-05-07T14:17:24;23.10;99.90
24085;DHT22;12268;52.110;5.548;2023-05-07T14:19:52;23.10;99.90
24085;DHT22;12268;52.110;5.548;2023-05-07T14:22:21;22.80;99.90
24085;DHT22;12268;52.110;5.548;2023-05-07T14:24:50;22.70;99.90
24085;DHT22;12268;52.110;5.548;2023-05-07T14:27:16;22.80;99.90
24085;DHT22;12268;52.110;5.548;2023-05-07T14:29:42;23.00;99.90
24085;DHT22;12268;52.110;5.548;2023-05-07T14:32:08;22.90;99.90
24085;DHT22;12268;52.110;5.548;2023-05-07T14:34:34;23.20;99.90
24085;DHT22;12268;52.110;5.548;2023-05-07T14:37:00;22.90;99.90
24085;DHT22;12268;52.110;5.548;2023-05-07T14:39:26;23.30;99.90
24085;DHT22;12268;52.110;5.548;2023-05-07T14:41:51;23.50;99.90
24085;DHT22;12268;52.110;5.548;2023-05-07T14:44:17;24.00;99.90
24085;DHT22;12268;52.110;5.548;2023-05-07T14:46:42;24.20;99.90
24085;DHT22;12268;52.110;5.548;2023-05-07T14:49:08;24.40;99.90
24085;DHT22;12268;52.110;5.548;2023-05-07T14:51:42;24.20;99.90
24085;DHT22;12268;52.110;5.548;2023-05-07T14:54:08;23.80;99.90
24085;DHT22;12268;52.110;5.548;2023-05-07T14:56:35;23.40;99.90
24085;DHT22;12268;52.110;5.548;2023-05-07T14:59:02;23.70;99.90
24085;DHT22;12268;52.110;5.548;2023-05-07T15:01:28;23.70;99.90
24085;DHT22;12268;52.110;5.548;2023-05-07T15:03:54;23.70;99.90
24085;DHT22;12268;52.110;5.548;2023-05-07T15:06:19;23.60;99.90
24085;DHT22;12268;52.110;5.548;2023-05-07T15:08:45;23.60;99.90
24085;DHT22;12268;52.110;5.548;2023-05-07T15:11:11;23.50;99.90
24085;DHT22;12268;52.110;5.548;2023-05-07T15:13:36;23.40;99.90
24085;DHT22;12268;52.110;5.548;2023-05-07T15:16:02;23.00;99.90
24085;DHT22;12268;52.110;5.548;2023-05-07T15:18:27;22.40;99.90
24085;DHT22;12268;52.110;5.548;2023-05-07T15:20:53;22.20;99.90
24085;DHT22;12268;52.110;5.548;2023-05-07T15:23:18;22.10;99.90
24085;DHT22;12268;52.110;5.548;2023-05-07T15:25:44;22.40;99.90
24085;DHT22;12268;52.110;5.548;2023-05-07T15:28:09;22.70;99.90
24085;DHT22;12268;52.110;5.548;2023-05-07T15:30:35;22.50;99.90
24085;DHT22;12268;52.110;5.548;2023-05-07T15:33:01;22.10;99.90
24085;DHT22;12268;52.110;5.548;2023-05-07T15:35:28;21.70;99.90
24085;DHT22;12268;52.110;5.548;2023-05-07T15:37:53;21.50;99.90
24085;DHT22;12268;52.110;5.548;2023-05-07T15:40:19;21.90;99.90
24085;DHT22;12268;52.110;5.548;2023-05-07T15:42:45;22.30;99.90
24085;DHT22;12268;52.110;5.548;2023-05-07T15:45:11;22.50;99.90
24085;DHT22;12268;52.110;5.548;2023-05-07T15:47:37;22.30;99.90
24085;DHT22;12268;52.110;5.548;2023-05-07T15:50:03;21.90;99.90
24085;DHT22;12268;52.110;5.548;2023-05-07T15:52:28;21.60;99.90
24085;DHT22;12268;52.110;5.548;2023-05-07T15:54:55;21.50;99.90
24085;DHT22;12268;52.110;5.548;2023-05-07T15:57:21;21.80;99.90
24085;DHT22;12268;52.110;5.548;2023-05-07T15:59:47;21.80;99.90
24085;DHT22;12268;52.110;5.548;2023-05-07T16:02:13;21.40;99.90
24085;DHT22;12268;52.110;5.548;2023-05-07T16:04:38;20.90;99.90
24085;DHT22;12268;52.110;5.548;2023-05-07T16:07:04;20.40;99.90
24085;DHT22;12268;52.110;5.548;2023-05-07T16:09:30;19.90;99.90
24085;DHT22;12268;52.110;5.548;2023-05-07T16:11:55;19.70;99.90
24085;DHT22;12268;52.110;5.548;2023-05-07T16:14:21;19.70;99.90
24085;DHT22;12268;52.110;5.548;2023-05-07T16:16:47;19.80;99.90
24085;DHT22;12268;52.110;5.548;2023-05-07T16:19:12;19.80;99.90
24085;DHT22;12268;52.110;5.548;2023-05-07T16:21:38;19.80;99.90
24085;DHT22;12268;52.110;5.548;2023-05-07T16:24:04;19.90;99.90
24085;DHT22;12268;52.110;5.548;2023-05-07T16:26:30;19.80;99.90
24085;DHT22;12268;52.110;5.548;2023-05-07T16:28:55;19.60;99.90
24085;DHT22;12268;52.110;5.548;2023-05-07T16:31:21;19.50;99.90
24085;DHT22;12268;52.110;5.548;2023-05-07T16:33:47;19.40;99.90
24085;DHT22;12268;52.110;5.548;2023-05-07T16:36:12;19.40;99.90
24085;DHT22;12268;52.110;5.548;2023-05-07T16:38:38;19.50;99.90
24085;DHT22;12268;52.110;5.548;2023-05-07T16:41:04;19.20;99.90
24085;DHT22;12268;52.110;5.548;2023-05-07T16:43:30;18.90;99.90
24085;DHT22;12268;52.110;5.548;2023-05-07T16:45:56;18.70;99.90
24085;DHT22;12268;52.110;5.548;2023-05-07T16:48:21;18.60;99.90
24085;DHT22;12268;52.110;5.548;2023-05-07T16:50:47;18.60;99.90
24085;DHT22;12268;52.110;5.548;2023-05-07T16:53:13;19.10;99.90
24085;DHT22;12268;52.110;5.548;2023-05-07T16:55:39;19.20;99.90
24085;DHT22;12268;52.110;5.548;2023-05-07T16:58:09;19.40;99.90
24085;DHT22;12268;52.110;5.548;2023-05-07T17:00:35;19.50;99.90
24085;DHT22;12268;52.110;5.548;2023-05-07T17:03:02;19.50;99.90
24085;DHT22;12268;52.110;5.548;2023-05-07T17:05:27;19.50;99.90
24085;DHT22;12268;52.110;5.548;2023-05-07T17:07:54;19.70;99.90
24085;DHT22;12268;52.110;5.548;2023-05-07T17:10:20;19.70;99.90
24085;DHT22;12268;52.110;5.548;2023-05-07T17:12:46;19.60;99.90
24085;DHT22;12268;52.110;5.548;2023-05-07T17:15:11;19.10;99.90
24085;DHT22;12268;52.110;5.548;2023-05-07T17:17:37;18.70;99.90
24085;DHT22;12268;52.110;5.548;2023-05-07T17:20:03;18.30;99.90
24085;DHT22;12268;52.110;5.548;2023-05-07T17:22:30;18.00;99.90
24085;DHT22;12268;52.110;5.548;2023-05-07T17:24:57;17.80;99.90
24085;DHT22;12268;52.110;5.548;2023-05-07T17:27:23;18.30;99.90
24085;DHT22;12268;52.110;5.548;2023-05-07T17:29:48;18.60;99.90
24085;DHT22;12268;52.110;5.548;2023-05-07T17:32:14;18.60;99.90
24085;DHT22;12268;52.110;5.548;2023-05-07T17:34:40;18.80;99.90
24085;DHT22;12268;52.110;5.548;2023-05-07T17:37:05;19.20;99.90
24085;DHT22;12268;52.110;5.548;2023-05-07T17:39:31;19.40;99.90
24085;DHT22;12268;52.110;5.548;2023-05-07T17:41:56;19.50;99.90
24085;DHT22;12268;52.110;5.548;2023-05-07T17:44:22;19.30;99.90
24085;DHT22;12268;52.110;5.548;2023-05-07T17:46:47;19.20;99.90
24085;DHT22;12268;52.110;5.548;2023-05-07T17:49:14;19.10;99.90
24085;DHT22;12268;52.110;5.548;2023-05-07T20:01:08;18.80;99.90